Main page
METAR-TAF:

METAR-TAF

Airports :

Agen, France

Agen La Garenne Airport

latitude: 44-11N, longitude: 000-36E, elevation: 61 m

Current weather observation

The report was made 29 minutes ago, at 07:00 UTC
Wind 7 kt from the East/Southeast
Temperature 2°C
Humidity 100%
Pressure 1014 hPa
Visibility: 0450 m
fog

METAR: LFBA 220700Z AUTO 11007KT 0450 R29/0600N FG VV/// 02/02 Q1014 BECMG CAVOK

Time: 08:29 (07:29 UTC)

Forecast

The report was made 2 hours and 29 minutes ago, at 05:00 UTC
Forecast valid from 22 at 06 UTC to 22 at 15 UTC
Wind 2 kt from variable directions
Visibility: 0400 m
fog
Probability 40% :
Temporary
from 22 at 06 UTC to 22 at 08 UTC
Visibility: 0200 m
Becoming
from 22 at 08 UTC to 22 at 10 UTC
Wind 12 kt from the Southeast
Visibility 10 km or more
no clouds below 1500 m and no cumulonimbus

TAF: LFBA 220500Z 2206/2215 VRB02KT 0400 FG VV/// PROB40 TEMPO 2206/2208 0200 BECMG 2208/2210 14012KT CAVOK

Weather observations and forecasts of more than 4000 airports (METAR and TAF reports).

The available stations are represented by yellow and red dots on the map.

Hover mouse over dot to see the name of the station.

Then click to see weather observations and forecasts.

To change the map : click on the green buttons with a black cross to zoom in, on the green button with a dash to zoom out, or on the green arrows for adjacent maps.


METAR-TAF: